ダッカ の空港の天気 - METARとTAF

シャージャラル国際空港(ダッカ) ( VGHS / DAC ) - バングラデシュ ダッカ
飛行場実況気象(Metar)
観測時間07/17 15:30 BDT (07/17 09:30 UTC)
風向・風速南南東 5m/s
視程4000m
天気現象煙霧
少しの雲 雲底高度 760m
全天の4割程度の雲 雲底高度 3050m
気温30℃
湿度70%
気圧998hPa
METARVGHS 170930Z 16010KT 4000 HZ FEW025 SCT100 30/24 Q0998 NOSIG
過去の天気等 Google飛行場航空写真 Wunderground天気予報

過去48時間のMETAR

飛行場予報(TAF)
発表時間: 7/17 11:00 BDT (7/17 05:00 UTC)
予報対象時間: 17日12時 BDT ~ 18日18時 BDT
風向・風速南東 5m/s
視程3500m
天気現象煙霧
全天の4割程度の雲 雲底高度 370m
全天の8割程度の雲 雲底高度 3050m
17日12時 BDT ~ 17日18時 BDT に一時的に
風向・風速南西 10m/s 瞬間風速 15m/s
視程2000m
17日19時 BDT ~ 17日21時 BDT に徐々に
風向・風速南南東 5m/s
視程4000m
天気現象煙霧
全天の4割程度の雲 雲底高度 460m
全天の8割程度の雲 雲底高度 3050m
TAF VGHS 170500Z 1706/1812 13010KT 3500 HZ SCT012 BKN100
TEMPO 1706/1712 22020G30KT 2000 RA/TSRA BKN008 FEW025CB OVC090
BECMG 1713/1715 15010KT 4000 HZ SCT015 BKN100